createdAt,value
2019-03-24T00:00:12.067Z,3.30
2019-03-24T00:02:40.602Z,3.30
2019-03-24T00:05:09.203Z,3.20
2019-03-24T00:07:37.737Z,3.20
2019-03-24T00:10:07.535Z,3.20
2019-03-24T00:12:36.002Z,3.20
2019-03-24T00:15:06.991Z,3.20
2019-03-24T00:17:35.531Z,3.20
2019-03-24T00:20:06.467Z,3.20
2019-03-24T00:22:35.018Z,3.10
2019-03-24T00:25:04.606Z,3.00
2019-03-24T00:27:33.139Z,2.90
2019-03-24T00:30:01.753Z,3.00
2019-03-24T00:32:30.274Z,3.00
2019-03-24T00:34:58.742Z,3.10
2019-03-24T00:37:27.277Z,3.20
2019-03-24T00:39:55.818Z,3.20
2019-03-24T00:42:24.354Z,3.10
2019-03-24T00:44:52.887Z,2.90
2019-03-24T00:47:21.497Z,3.00
2019-03-24T00:49:50.115Z,3.10
2019-03-24T00:52:18.630Z,3.00
2019-03-24T00:54:47.173Z,3.00
2019-03-24T00:57:15.694Z,2.90
2019-03-24T00:59:44.142Z,2.80
2019-03-24T01:02:12.687Z,2.70
2019-03-24T01:04:41.238Z,2.70
2019-03-24T01:07:09.913Z,2.70
2019-03-24T01:09:38.443Z,2.60
2019-03-24T01:12:07.078Z,2.50
2019-03-24T01:14:35.540Z,2.40
2019-03-24T01:17:04.203Z,2.10
2019-03-24T01:19:32.746Z,1.90
2019-03-24T01:22:01.272Z,1.80
2019-03-24T01:24:29.891Z,1.90
2019-03-24T01:26:58.416Z,1.90
2019-03-24T01:29:26.973Z,1.90
2019-03-24T01:31:55.494Z,2.00
2019-03-24T01:34:24.041Z,2.10
2019-03-24T01:36:52.566Z,2.10
2019-03-24T01:39:21.116Z,2.10
2019-03-24T01:41:49.567Z,2.00
2019-03-24T01:44:18.184Z,1.90
2019-03-24T01:46:46.711Z,1.90
2019-03-24T01:49:15.203Z,1.80
2019-03-24T01:51:43.724Z,1.70
2019-03-24T01:54:12.505Z,1.60
2019-03-24T01:56:41.024Z,1.60
2019-03-24T01:59:09.546Z,1.50
2019-03-24T02:01:38.091Z,1.50
2019-03-24T02:04:06.614Z,1.50
2019-03-24T02:06:35.158Z,1.50
2019-03-24T02:09:05.956Z,1.50
2019-03-24T02:11:34.570Z,1.50
2019-03-24T02:14:03.086Z,1.50
2019-03-24T02:16:31.621Z,1.40
2019-03-24T02:19:00.175Z,1.40
2019-03-24T02:21:28.970Z,1.40
2019-03-24T02:23:57.442Z,1.30
2019-03-24T02:26:25.966Z,1.30
2019-03-24T02:28:54.512Z,1.30
2019-03-24T02:31:23.044Z,1.30
2019-03-24T02:33:51.592Z,1.10
2019-03-24T02:36:20.119Z,1.20
2019-03-24T02:38:48.643Z,1.10
2019-03-24T02:41:17.192Z,1.10
2019-03-24T02:43:45.718Z,1.00
2019-03-24T02:46:24.072Z,1.10
2019-03-24T02:48:44.441Z,1.10
2019-03-24T02:51:12.993Z,1.10
2019-03-24T02:53:41.587Z,1.00
2019-03-24T02:56:10.115Z,1.00
2019-03-24T02:58:38.660Z,1.00
2019-03-24T03:01:07.251Z,1.00
2019-03-24T03:03:35.881Z,0.90
2019-03-24T03:06:04.555Z,0.80
2019-03-24T03:08:33.099Z,0.80
2019-03-24T03:11:01.623Z,0.80
2019-03-24T03:13:30.179Z,0.80
2019-03-24T03:15:58.768Z,1.00
2019-03-24T03:18:27.323Z,0.90
2019-03-24T03:20:55.848Z,0.90
2019-03-24T03:23:24.458Z,1.00
2019-03-24T03:25:53.064Z,0.90
2019-03-24T03:28:21.674Z,0.90
2019-03-24T03:30:50.213Z,0.80
2019-03-24T03:33:18.945Z,0.70
2019-03-24T03:35:47.459Z,0.70
2019-03-24T03:38:16.002Z,0.60
2019-03-24T03:40:44.588Z,0.60
2019-03-24T03:43:13.213Z,0.50
2019-03-24T03:45:41.785Z,0.50
2019-03-24T03:48:10.270Z,0.50
2019-03-24T03:50:38.829Z,0.50
2019-03-24T03:53:07.362Z,0.50
2019-03-24T03:55:35.904Z,0.40
2019-03-24T03:58:04.517Z,0.50
2019-03-24T04:00:35.295Z,0.50
2019-03-24T04:03:04.982Z,0.40
2019-03-24T04:05:33.573Z,0.40
2019-03-24T04:08:02.238Z,0.40
2019-03-24T04:10:30.857Z,0.40
2019-03-24T04:12:59.388Z,0.30
2019-03-24T04:15:27.927Z,0.20
2019-03-24T04:17:56.465Z,0.20
2019-03-24T04:20:25.066Z,0.10
2019-03-24T04:22:53.519Z,0.10
2019-03-24T04:25:22.077Z,0.10
2019-03-24T04:27:50.599Z,0.10
2019-03-24T04:30:19.202Z,0.10
2019-03-24T04:32:47.758Z,0.10
2019-03-24T04:35:16.346Z,0.00
2019-03-24T04:37:44.969Z,-0.10
2019-03-24T04:40:13.495Z,-0.20
2019-03-24T04:42:42.055Z,-0.20
2019-03-24T04:45:10.814Z,-0.10
2019-03-24T04:47:39.292Z,-0.10
2019-03-24T04:50:08.790Z,0.00
2019-03-24T04:52:37.351Z,-0.10
2019-03-24T04:55:07.421Z,-0.10
2019-03-24T04:57:35.967Z,-0.10
2019-03-24T05:00:09.487Z,-0.10
2019-03-24T05:02:38.109Z,0.00
2019-03-24T05:05:07.775Z,-0.10
2019-03-24T05:07:36.662Z,-0.10
2019-03-24T05:10:06.728Z,0.00
2019-03-24T05:12:35.267Z,0.00
2019-03-24T05:15:03.940Z,0.00
2019-03-24T05:17:32.491Z,0.00
2019-03-24T05:20:01.023Z,-0.10
2019-03-24T05:22:29.575Z,-0.10
2019-03-24T05:24:58.107Z,-0.10
2019-03-24T05:27:26.663Z,-0.10
2019-03-24T05:29:55.195Z,0.00
2019-03-24T05:32:23.736Z,0.10
2019-03-24T05:34:52.267Z,0.20
2019-03-24T05:37:20.801Z,0.30
2019-03-24T05:39:49.372Z,0.40
2019-03-24T05:42:17.869Z,0.40
2019-03-24T05:44:46.339Z,0.60
2019-03-24T05:47:14.871Z,0.70
2019-03-24T05:49:43.481Z,0.90
2019-03-24T05:52:11.942Z,1.20
2019-03-24T05:54:40.495Z,1.50
2019-03-24T05:57:09.016Z,1.80
2019-03-24T05:59:37.498Z,2.10
2019-03-24T06:02:06.096Z,2.30
2019-03-24T06:04:34.645Z,2.60
2019-03-24T06:07:03.167Z,2.90
2019-03-24T06:09:31.711Z,3.10
2019-03-24T06:12:00.242Z,3.30
2019-03-24T06:14:28.855Z,3.60
2019-03-24T06:16:57.378Z,3.80
2019-03-24T06:19:25.938Z,3.90
2019-03-24T06:21:54.531Z,3.80
2019-03-24T06:24:23.085Z,3.70
2019-03-24T06:26:51.606Z,4.00
2019-03-24T06:29:20.154Z,4.30
2019-03-24T06:31:48.687Z,4.70
2019-03-24T06:34:17.240Z,5.10
2019-03-24T06:36:45.768Z,5.50
2019-03-24T06:39:14.312Z,5.80
2019-03-24T06:41:42.834Z,6.10
2019-03-24T06:44:11.392Z,6.30
2019-03-24T06:46:39.914Z,6.40
2019-03-24T06:49:08.469Z,6.40
2019-03-24T06:51:36.991Z,6.40
2019-03-24T06:54:05.675Z,6.80
2019-03-24T06:56:34.298Z,7.40
2019-03-24T06:59:03.694Z,8.00
2019-03-24T07:01:32.191Z,8.50
2019-03-24T07:04:00.746Z,9.00
2019-03-24T07:06:29.346Z,9.40
2019-03-24T07:08:57.828Z,9.70
2019-03-24T07:11:26.360Z,10.10
2019-03-24T07:13:54.914Z,10.50
2019-03-24T07:16:23.371Z,10.80
2019-03-24T07:18:51.850Z,11.00
2019-03-24T07:21:20.386Z,11.30
2019-03-24T07:23:48.939Z,11.50
2019-03-24T07:26:17.399Z,11.80
2019-03-24T07:28:45.956Z,12.00
2019-03-24T07:31:14.487Z,12.40
2019-03-24T07:33:43.038Z,12.50
2019-03-24T07:36:11.579Z,12.70
2019-03-24T07:38:40.137Z,12.90
2019-03-24T07:41:08.738Z,13.00
2019-03-24T07:43:37.435Z,13.00
2019-03-24T07:46:05.958Z,13.30
2019-03-24T07:48:34.511Z,13.50
2019-03-24T07:51:03.051Z,13.50
2019-03-24T07:53:31.602Z,13.40
2019-03-24T07:56:00.067Z,13.40
2019-03-24T07:58:28.614Z,13.60
2019-03-24T08:00:57.078Z,13.70
2019-03-24T08:03:25.631Z,13.90
2019-03-24T08:05:54.160Z,14.00
2019-03-24T08:08:22.786Z,14.10
2019-03-24T08:10:51.387Z,14.30
2019-03-24T08:13:19.928Z,14.50
2019-03-24T08:15:48.459Z,14.60
2019-03-24T08:18:17.017Z,14.90
2019-03-24T08:20:45.553Z,15.00
2019-03-24T08:23:14.154Z,14.90
2019-03-24T08:25:42.702Z,15.10
2019-03-24T08:28:11.160Z,15.20
2019-03-24T08:30:41.419Z,15.30
2019-03-24T08:33:10.018Z,15.50
2019-03-24T08:35:38.572Z,15.70
2019-03-24T08:38:07.243Z,15.70
2019-03-24T08:40:35.842Z,15.70
2019-03-24T08:43:04.921Z,15.70
2019-03-24T08:45:35.039Z,15.80
2019-03-24T08:48:04.027Z,15.70
2019-03-24T08:50:32.583Z,15.70
2019-03-24T08:53:01.101Z,15.70
2019-03-24T08:55:29.707Z,15.80
2019-03-24T08:57:58.269Z,15.90
2019-03-24T09:00:30.836Z,16.00
2019-03-24T09:02:57.126Z,16.00
2019-03-24T09:05:25.582Z,16.10
2019-03-24T09:07:54.131Z,16.20
2019-03-24T09:10:22.655Z,16.20
2019-03-24T09:12:51.274Z,16.40
2019-03-24T09:15:19.805Z,16.50
2019-03-24T09:17:48.350Z,16.70
2019-03-24T09:20:17.153Z,16.90
2019-03-24T09:22:45.679Z,17.00
2019-03-24T09:25:14.495Z,17.20
2019-03-24T09:27:43.023Z,17.20
2019-03-24T09:30:17.457Z,17.20
2019-03-24T09:32:46.061Z,17.20
2019-03-24T09:35:14.677Z,17.30
2019-03-24T09:37:43.140Z,17.40
2019-03-24T09:40:14.764Z,17.30
2019-03-24T09:42:43.291Z,17.20
2019-03-24T09:45:12.486Z,17.10
2019-03-24T09:47:41.076Z,17.10
2019-03-24T09:50:10.404Z,17.30
2019-03-24T09:52:38.976Z,17.40
2019-03-24T09:55:07.638Z,17.40
2019-03-24T09:57:36.196Z,17.50
2019-03-24T10:00:06.573Z,17.60
2019-03-24T10:02:35.323Z,17.80
2019-03-24T10:05:04.223Z,18.10
2019-03-24T10:07:32.699Z,18.20
2019-03-24T10:10:01.291Z,18.20
2019-03-24T10:12:29.839Z,18.10
2019-03-24T10:14:58.369Z,18.30
2019-03-24T10:17:27.011Z,18.70
2019-03-24T10:19:55.538Z,18.70
2019-03-24T10:22:24.010Z,18.70
2019-03-24T10:24:52.543Z,18.60
2019-03-24T10:27:21.094Z,18.50
2019-03-24T10:29:49.627Z,18.60
2019-03-24T10:32:18.188Z,18.80
2019-03-24T10:34:46.717Z,19.10
2019-03-24T10:37:15.278Z,19.30
2019-03-24T10:39:45.178Z,19.40
2019-03-24T10:42:13.832Z,19.60
2019-03-24T10:44:42.442Z,19.70
2019-03-24T10:47:10.966Z,19.80
2019-03-24T10:49:39.518Z,19.90
2019-03-24T10:52:08.052Z,20.00
2019-03-24T10:54:36.598Z,20.10
2019-03-24T10:57:05.456Z,20.10
2019-03-24T10:59:34.186Z,20.30
2019-03-24T11:02:02.719Z,20.50
2019-03-24T11:04:31.251Z,20.70
2019-03-24T11:06:59.796Z,20.70
2019-03-24T11:09:28.322Z,20.40
2019-03-24T11:11:56.801Z,20.00
2019-03-24T11:14:25.349Z,19.90
2019-03-24T11:16:53.964Z,20.20
2019-03-24T11:19:22.497Z,20.40
2019-03-24T11:21:51.052Z,20.60
2019-03-24T11:24:19.584Z,20.60
2019-03-24T11:26:48.139Z,20.70
2019-03-24T11:29:16.666Z,20.60
2019-03-24T11:31:45.214Z,20.40
2019-03-24T11:34:13.750Z,20.20
2019-03-24T11:36:42.280Z,20.40
2019-03-24T11:39:10.836Z,20.70
2019-03-24T11:41:39.371Z,20.70
2019-03-24T11:44:07.994Z,20.80
2019-03-24T11:46:36.519Z,20.90
2019-03-24T11:49:06.674Z,20.90
2019-03-24T11:51:35.135Z,21.00
2019-03-24T11:54:03.683Z,21.10
2019-03-24T11:56:32.213Z,21.10
2019-03-24T11:59:00.764Z,21.10
2019-03-24T12:01:37.998Z,21.20
2019-03-24T12:03:59.551Z,21.50
2019-03-24T12:06:28.083Z,21.40
2019-03-24T12:08:56.598Z,21.30
2019-03-24T12:11:25.240Z,21.30
2019-03-24T12:13:53.776Z,21.40
2019-03-24T12:16:22.311Z,21.50
2019-03-24T12:18:50.770Z,21.50
2019-03-24T12:21:19.305Z,21.60
2019-03-24T12:23:47.852Z,21.60
2019-03-24T12:26:16.386Z,21.70
2019-03-24T12:28:44.864Z,21.90
2019-03-24T12:31:13.402Z,22.00
2019-03-24T12:33:41.956Z,22.00
2019-03-24T12:36:10.487Z,21.80
2019-03-24T12:38:39.018Z,21.70
2019-03-24T12:41:07.571Z,21.60
2019-03-24T12:43:36.100Z,21.40
2019-03-24T12:46:04.655Z,21.30
2019-03-24T12:48:33.188Z,21.30
2019-03-24T12:51:01.743Z,21.00
2019-03-24T12:53:30.267Z,20.80
2019-03-24T12:55:58.743Z,20.90
2019-03-24T12:58:27.213Z,21.00
2019-03-24T13:00:55.732Z,21.00
2019-03-24T13:03:24.289Z,21.10
2019-03-24T13:05:53.876Z,20.70
2019-03-24T13:08:22.423Z,20.50
2019-03-24T13:10:51.040Z,20.50
2019-03-24T13:13:19.739Z,20.70
2019-03-24T13:15:48.395Z,20.90
2019-03-24T13:18:17.611Z,21.00
2019-03-24T13:20:46.216Z,21.10
2019-03-24T13:23:14.835Z,21.20
2019-03-24T13:25:43.437Z,21.10
2019-03-24T13:28:12.106Z,21.10
2019-03-24T13:30:40.586Z,21.10
2019-03-24T13:33:09.190Z,21.30
2019-03-24T13:35:37.736Z,21.30
2019-03-24T13:38:06.340Z,21.30
2019-03-24T13:40:34.955Z,21.40
2019-03-24T13:43:03.561Z,21.20
2019-03-24T13:45:32.182Z,21.10
2019-03-24T13:48:00.640Z,20.90
2019-03-24T13:50:31.693Z,21.00
2019-03-24T13:52:59.383Z,20.90
2019-03-24T13:55:27.940Z,20.90
2019-03-24T13:57:56.543Z,20.90
2019-03-24T14:00:25.143Z,20.80
2019-03-24T14:02:53.623Z,20.90
2019-03-24T14:05:22.154Z,21.10
2019-03-24T14:07:50.770Z,21.20
2019-03-24T14:10:19.227Z,21.20
2019-03-24T14:12:47.700Z,21.20
2019-03-24T14:15:16.311Z,21.30
2019-03-24T14:17:44.851Z,21.30
2019-03-24T14:20:13.945Z,21.00
2019-03-24T14:22:42.467Z,20.90
2019-03-24T14:25:11.159Z,20.90
2019-03-24T14:27:39.619Z,20.70
2019-03-24T14:30:09.411Z,20.40
2019-03-24T14:32:37.939Z,20.40
2019-03-24T14:35:07.568Z,20.50
2019-03-24T14:37:36.266Z,20.60
2019-03-24T14:40:06.726Z,20.60
2019-03-24T14:42:35.267Z,20.60
2019-03-24T14:45:05.167Z,20.60
2019-03-24T14:47:33.650Z,20.60
2019-03-24T14:50:02.111Z,20.60
2019-03-24T14:52:30.654Z,20.60
2019-03-24T14:54:59.119Z,20.50
2019-03-24T14:57:27.739Z,20.40
2019-03-24T14:59:56.202Z,20.50
2019-03-24T15:02:24.686Z,20.70
2019-03-24T15:04:53.242Z,20.50
2019-03-24T15:07:21.771Z,20.40
2019-03-24T15:09:50.320Z,20.40
2019-03-24T15:12:18.847Z,20.30
2019-03-24T15:14:47.420Z,20.20
2019-03-24T15:17:15.957Z,20.20
2019-03-24T15:19:44.479Z,20.00
2019-03-24T15:22:13.052Z,20.10
2019-03-24T15:24:41.916Z,20.20
2019-03-24T15:27:10.386Z,20.30
2019-03-24T15:29:38.917Z,20.20
2019-03-24T15:32:07.536Z,20.10
2019-03-24T15:34:36.070Z,20.00
2019-03-24T15:37:04.609Z,20.00
2019-03-24T15:39:33.154Z,20.00
2019-03-24T15:42:01.616Z,20.10
2019-03-24T15:44:30.166Z,20.20
2019-03-24T15:46:58.697Z,20.20
2019-03-24T15:49:27.247Z,20.10
2019-03-24T15:51:55.776Z,20.00
2019-03-24T15:54:24.334Z,19.90
2019-03-24T15:56:52.872Z,19.90
2019-03-24T15:59:21.471Z,19.90
2019-03-24T16:01:50.031Z,19.70
2019-03-24T16:04:18.565Z,19.60
2019-03-24T16:06:47.106Z,19.50
2019-03-24T16:09:15.761Z,19.40
2019-03-24T16:11:44.268Z,19.40
2019-03-24T16:14:12.795Z,19.30
2019-03-24T16:16:41.333Z,19.10
2019-03-24T16:19:09.954Z,19.00
2019-03-24T16:21:38.496Z,18.80
2019-03-24T16:24:07.068Z,18.60
2019-03-24T16:26:35.586Z,18.60
2019-03-24T16:29:04.243Z,18.60
2019-03-24T16:31:32.942Z,18.50
2019-03-24T16:34:01.610Z,18.40
2019-03-24T16:36:30.089Z,18.30
2019-03-24T16:39:03.404Z,18.10
2019-03-24T16:41:28.829Z,18.00
2019-03-24T16:43:57.376Z,17.90
2019-03-24T16:46:25.902Z,17.80
2019-03-24T16:48:54.463Z,17.70
2019-03-24T16:51:22.990Z,17.60
2019-03-24T16:53:51.551Z,17.60
2019-03-24T16:56:20.096Z,17.50
2019-03-24T16:58:48.639Z,17.30
2019-03-24T17:01:17.171Z,17.20
2019-03-24T17:03:45.718Z,17.20
2019-03-24T17:06:15.161Z,17.00
2019-03-24T17:08:43.710Z,16.90
2019-03-24T17:11:12.260Z,16.90
2019-03-24T17:13:40.791Z,16.80
2019-03-24T17:16:09.334Z,16.80
2019-03-24T17:18:37.867Z,16.70
2019-03-24T17:21:06.421Z,16.60
2019-03-24T17:23:35.014Z,16.50
2019-03-24T17:26:03.748Z,16.40
2019-03-24T17:28:32.356Z,16.20
2019-03-24T17:31:00.955Z,16.10
2019-03-24T17:33:29.503Z,16.10
2019-03-24T17:35:58.177Z,16.10
2019-03-24T17:38:26.732Z,15.90
2019-03-24T17:40:55.263Z,15.80
2019-03-24T17:43:23.814Z,15.80
2019-03-24T17:45:52.276Z,15.70
2019-03-24T17:48:20.892Z,15.60
2019-03-24T17:50:49.501Z,15.30
2019-03-24T17:53:18.050Z,15.30
2019-03-24T17:55:46.504Z,15.20
2019-03-24T17:58:15.060Z,15.00
2019-03-24T18:00:46.774Z,14.90
2019-03-24T18:03:15.373Z,14.80
2019-03-24T18:05:43.996Z,14.70
2019-03-24T18:08:12.590Z,14.60
2019-03-24T18:10:41.067Z,14.50
2019-03-24T18:13:09.666Z,14.30
2019-03-24T18:15:38.397Z,14.20
2019-03-24T18:18:07.075Z,14.10
2019-03-24T18:20:36.740Z,14.10
2019-03-24T18:23:05.376Z,13.90
2019-03-24T18:25:33.989Z,13.80
2019-03-24T18:28:02.536Z,13.60
2019-03-24T18:30:31.077Z,13.60
2019-03-24T18:32:59.626Z,13.40
2019-03-24T18:35:28.158Z,13.30
2019-03-24T18:37:56.719Z,13.30
2019-03-24T18:40:25.319Z,13.20
2019-03-24T18:42:53.807Z,13.20
2019-03-24T18:45:22.486Z,13.30
2019-03-24T18:47:51.094Z,13.30
2019-03-24T18:50:19.697Z,13.30
2019-03-24T18:52:50.089Z,13.30
2019-03-24T18:55:18.503Z,13.40
2019-03-24T18:57:47.068Z,13.40
2019-03-24T19:00:16.289Z,13.40
2019-03-24T19:02:44.768Z,13.50
2019-03-24T19:05:18.773Z,13.50
2019-03-24T19:07:47.891Z,13.40
2019-03-24T19:10:16.678Z,13.20
2019-03-24T19:12:45.206Z,13.10
2019-03-24T19:15:16.394Z,13.00
2019-03-24T19:17:44.991Z,12.90
2019-03-24T19:20:17.386Z,12.90
2019-03-24T19:22:46.316Z,12.90
2019-03-24T19:25:14.983Z,12.90
2019-03-24T19:27:43.732Z,12.90
2019-03-24T19:30:17.939Z,13.10
2019-03-24T19:32:46.964Z,13.00
2019-03-24T19:35:16.403Z,13.00
2019-03-24T19:37:46.496Z,13.00
2019-03-24T19:40:31.962Z,12.90
2019-03-24T19:43:00.588Z,12.90
2019-03-24T19:45:29.119Z,12.80
2019-03-24T19:47:58.000Z,12.70
2019-03-24T19:50:26.892Z,12.60
2019-03-24T19:52:55.451Z,12.60
2019-03-24T19:55:24.058Z,12.50
2019-03-24T19:57:52.514Z,12.30
2019-03-24T20:00:21.130Z,12.10
2019-03-24T20:02:49.735Z,12.10
2019-03-24T20:05:18.681Z,12.10
2019-03-24T20:07:48.350Z,12.10
2019-03-24T20:10:17.092Z,12.20
2019-03-24T20:12:45.779Z,12.00
2019-03-24T20:15:14.399Z,12.00
2019-03-24T20:17:43.069Z,11.90
2019-03-24T20:20:12.244Z,11.90
2019-03-24T20:22:41.079Z,11.80
2019-03-24T20:25:09.867Z,11.80
2019-03-24T20:27:38.405Z,11.80
2019-03-24T20:30:10.324Z,11.70
2019-03-24T20:32:39.033Z,11.70
2019-03-24T20:35:08.402Z,11.60
2019-03-24T20:37:37.026Z,11.50
2019-03-24T20:40:06.902Z,11.50
2019-03-24T20:42:35.384Z,11.40
2019-03-24T20:45:05.626Z,11.50
2019-03-24T20:47:34.170Z,11.40
2019-03-24T20:50:03.837Z,11.40
2019-03-24T20:52:32.463Z,11.30
2019-03-24T20:55:01.022Z,11.20
2019-03-24T20:57:29.570Z,11.30
2019-03-24T20:59:58.115Z,11.40
2019-03-24T21:02:26.714Z,11.40
2019-03-24T21:04:55.267Z,11.30
2019-03-24T21:07:23.807Z,11.30
2019-03-24T21:09:52.422Z,11.10
2019-03-24T21:12:40.421Z,11.00
2019-03-24T21:15:11.413Z,10.90
2019-03-24T21:17:39.546Z,10.90
2019-03-24T21:20:08.439Z,11.00
2019-03-24T21:22:37.052Z,11.00
2019-03-24T21:25:06.646Z,11.00
2019-03-24T21:27:35.109Z,11.20
2019-03-24T21:30:05.902Z,11.30
2019-03-24T21:32:34.451Z,11.30
2019-03-24T21:35:03.058Z,11.10
2019-03-24T21:37:31.674Z,11.10
2019-03-24T21:40:00.321Z,11.10
2019-03-24T21:42:28.860Z,10.90
2019-03-24T21:44:57.402Z,10.70
2019-03-24T21:47:25.962Z,10.70
2019-03-24T21:49:54.488Z,10.80
2019-03-24T21:52:23.115Z,10.90
2019-03-24T21:54:51.663Z,10.70
2019-03-24T21:57:20.263Z,10.60
2019-03-24T21:59:48.828Z,10.60
2019-03-24T22:02:17.466Z,10.50
2019-03-24T22:04:46.127Z,10.40
2019-03-24T22:07:14.665Z,10.50
2019-03-24T22:09:43.215Z,10.50
2019-03-24T22:12:11.755Z,10.60
2019-03-24T22:14:40.311Z,10.60
2019-03-24T22:17:08.838Z,10.50
2019-03-24T22:19:38.708Z,10.50
2019-03-24T22:22:07.332Z,10.60
2019-03-24T22:24:35.862Z,10.50
2019-03-24T22:27:04.419Z,10.50
2019-03-24T22:29:32.874Z,10.30
2019-03-24T22:32:01.355Z,10.00
2019-03-24T22:34:29.886Z,9.90
2019-03-24T22:36:58.420Z,9.80
2019-03-24T22:39:26.980Z,9.50
2019-03-24T22:41:55.507Z,9.20
2019-03-24T22:44:24.058Z,9.00
2019-03-24T22:46:52.519Z,8.90
2019-03-24T22:49:21.058Z,9.00
2019-03-24T22:51:49.535Z,9.10
2019-03-24T22:54:18.090Z,9.00
2019-03-24T22:56:46.581Z,8.80
2019-03-24T22:59:15.234Z,8.90
2019-03-24T23:01:43.973Z,9.00
2019-03-24T23:04:12.498Z,9.00
2019-03-24T23:06:41.047Z,8.90
2019-03-24T23:09:10.219Z,8.90
2019-03-24T23:11:38.772Z,8.90
2019-03-24T23:14:07.434Z,8.70
2019-03-24T23:16:35.992Z,8.60
2019-03-24T23:19:04.583Z,8.40
2019-03-24T23:21:33.191Z,8.50
2019-03-24T23:24:01.739Z,8.40
2019-03-24T23:26:30.197Z,8.40
2019-03-24T23:28:58.743Z,8.30
2019-03-24T23:31:27.273Z,8.20
2019-03-24T23:33:55.825Z,8.10
2019-03-24T23:36:24.365Z,8.00
2019-03-24T23:38:52.898Z,7.90
2019-03-24T23:41:21.455Z,7.90
2019-03-24T23:43:50.062Z,7.90
2019-03-24T23:46:18.540Z,7.90
2019-03-24T23:48:47.349Z,7.90
2019-03-24T23:51:16.432Z,8.00
2019-03-24T23:53:44.967Z,8.00
2019-03-24T23:56:13.591Z,8.00
2019-03-24T23:58:42.123Z,8.10
